RYR64GU EPGD-EDDH
Flight info
| Callsign | RYR64GU |
|---|---|
| Flight time | 1h 3m |
| Altitude | 34000 |
| Route | DEXIR T671 AGODU L733 TABOK DCT VIBIS L619 BUMIL M748 RARUP RARUP3D |
| Aircraft | B738/M-SDE2E3FGHIRWXY/LB1 |
Departure
| Time | 2026-05-01 14:30 |
|---|---|
| Airport | Gdańsk Lech Wałęsa Airport (EPGD) |
Arrival
| Time | 2026-05-01 15:33 |
|---|---|
| Airport | Hamburg Helmut Schmidt Airport (EDDH) |
| Time | Latitude | Longitude | Altitude | Speed | Heading |
|---|---|---|---|---|---|
| 2026-05-01 14:07 | 54.38060 | 18.46375 | 452 ft | 0 kts | 202° |
| 2026-05-01 14:25 | 54.38053 | 18.46370 | 452 ft | 3 kts | 202° |
| 2026-05-01 14:25 | 54.38019 | 18.46342 | 453 ft | 8 kts | 215° |
| 2026-05-01 14:25 | 54.38013 | 18.46316 | 452 ft | 0 kts | 274° |
| 2026-05-01 14:26 | 54.38018 | 18.46289 | 453 ft | 5 kts | 288° |
| 2026-05-01 14:26 | 54.38052 | 18.46144 | 453 ft | 7 kts | 292° |
| 2026-05-01 14:26 | 54.38073 | 18.46065 | 452 ft | 8 kts | 293° |
| 2026-05-01 14:27 | 54.38094 | 18.45975 | 452 ft | 9 kts | 292° |
| 2026-05-01 14:27 | 54.38119 | 18.45874 | 452 ft | 10 kts | 292° |
| 2026-05-01 14:27 | 54.38148 | 18.45745 | 450 ft | 13 kts | 280° |
| 2026-05-01 14:28 | 54.38015 | 18.45621 | 454 ft | 13 kts | 145° |
| 2026-05-01 14:28 | 54.37980 | 18.45721 | 456 ft | 0 kts | 112° |
| 2026-05-01 14:28 | 54.37975 | 18.45744 | 455 ft | 9 kts | 112° |
| 2026-05-01 14:28 | 54.37877 | 18.46146 | 454 ft | 71 kts | 113° |
| 2026-05-01 14:29 | 54.37590 | 18.47287 | 458 ft | 132 kts | 112° |
| 2026-05-01 14:29 | 54.37179 | 18.48964 | 488 ft | 169 kts | 110° |
| 2026-05-01 14:30 | 54.35562 | 18.54602 | 1361 ft | 189 kts | 112° |
| 2026-05-01 14:30 | 54.35028 | 18.56653 | 1762 ft | 191 kts | 117° |
| 2026-05-01 14:30 | 54.34336 | 18.58729 | 2206 ft | 211 kts | 124° |
| 2026-05-01 14:31 | 54.32997 | 18.62858 | 3949 ft | 200 kts | 111° |
| 2026-05-01 14:31 | 54.32363 | 18.64949 | 4615 ft | 204 kts | 135° |
| 2026-05-01 14:31 | 54.31102 | 18.65899 | 5243 ft | 203 kts | 184° |
| 2026-05-01 14:31 | 54.29697 | 18.65481 | 5740 ft | 212 kts | 197° |
| 2026-05-01 14:32 | 54.28250 | 18.64564 | 5911 ft | 232 kts | 206° |
| 2026-05-01 14:32 | 54.26741 | 18.63386 | 6131 ft | 248 kts | 211° |
| 2026-05-01 14:32 | 54.25478 | 18.61389 | 6576 ft | 251 kts | 244° |
| 2026-05-01 14:32 | 54.25017 | 18.58433 | 6823 ft | 267 kts | 274° |
| 2026-05-01 14:33 | 54.25127 | 18.55209 | 7403 ft | 275 kts | 278° |
| 2026-05-01 14:33 | 54.25270 | 18.51916 | 8099 ft | 280 kts | 278° |
| 2026-05-01 14:33 | 54.25411 | 18.48617 | 8844 ft | 283 kts | 278° |
| 2026-05-01 14:33 | 54.25547 | 18.45222 | 9633 ft | 286 kts | 279° |
| 2026-05-01 14:34 | 54.25677 | 18.41828 | 10392 ft | 290 kts | 279° |
| 2026-05-01 14:34 | 54.25811 | 18.38276 | 10779 ft | 310 kts | 279° |
| 2026-05-01 14:34 | 54.25955 | 18.34451 | 10944 ft | 333 kts | 278° |
| 2026-05-01 14:34 | 54.26097 | 18.30376 | 11330 ft | 348 kts | 277° |
| 2026-05-01 14:35 | 54.26239 | 18.26205 | 11960 ft | 354 kts | 278° |
| 2026-05-01 14:35 | 54.26382 | 18.22032 | 12712 ft | 357 kts | 278° |
| 2026-05-01 14:35 | 54.26510 | 18.17758 | 13483 ft | 362 kts | 276° |
| 2026-05-01 14:35 | 54.26407 | 18.13391 | 14195 ft | 370 kts | 270° |
| 2026-05-01 14:36 | 54.26153 | 18.08966 | 14891 ft | 375 kts | 269° |
| 2026-05-01 14:36 | 54.25862 | 18.04515 | 15598 ft | 379 kts | 268° |
| 2026-05-01 14:36 | 54.25575 | 18.00064 | 16317 ft | 382 kts | 269° |
| 2026-05-01 14:36 | 54.25295 | 17.95498 | 16999 ft | 387 kts | 269° |
| 2026-05-01 14:37 | 54.25025 | 17.90888 | 17675 ft | 391 kts | 269° |
| 2026-05-01 14:37 | 54.24762 | 17.86273 | 18364 ft | 395 kts | 269° |
| 2026-05-01 14:37 | 54.24497 | 17.81550 | 18975 ft | 400 kts | 269° |
| 2026-05-01 14:37 | 54.24231 | 17.76779 | 19583 ft | 403 kts | 268° |
| 2026-05-01 14:38 | 54.23963 | 17.72032 | 20218 ft | 405 kts | 268° |
| 2026-05-01 14:38 | 54.23690 | 17.67203 | 20819 ft | 409 kts | 268° |
| 2026-05-01 14:38 | 54.23413 | 17.62344 | 21391 ft | 413 kts | 268° |
| 2026-05-01 14:38 | 54.23134 | 17.57483 | 21937 ft | 417 kts | 268° |
| 2026-05-01 14:39 | 54.22846 | 17.52493 | 22453 ft | 422 kts | 268° |
| 2026-05-01 14:39 | 54.22495 | 17.47478 | 23013 ft | 427 kts | 262° |
| 2026-05-01 14:39 | 54.21654 | 17.42563 | 23576 ft | 435 kts | 250° |
| 2026-05-01 14:39 | 54.20355 | 17.37923 | 24098 ft | 440 kts | 245° |
| 2026-05-01 14:40 | 54.18949 | 17.33237 | 24550 ft | 443 kts | 245° |
| 2026-05-01 14:40 | 54.17533 | 17.28556 | 24997 ft | 446 kts | 245° |
| 2026-05-01 14:40 | 54.16106 | 17.23827 | 25430 ft | 448 kts | 245° |
| 2026-05-01 14:40 | 54.14676 | 17.19058 | 25867 ft | 451 kts | 245° |
| 2026-05-01 14:41 | 54.13247 | 17.14272 | 26300 ft | 453 kts | 245° |
| 2026-05-01 14:41 | 54.11838 | 17.09541 | 26813 ft | 453 kts | 245° |
| 2026-05-01 14:41 | 54.10407 | 17.04725 | 27228 ft | 456 kts | 245° |
| 2026-05-01 14:41 | 54.08962 | 16.99864 | 27583 ft | 459 kts | 245° |
| 2026-05-01 14:42 | 54.07523 | 16.95030 | 27962 ft | 463 kts | 245° |
| 2026-05-01 14:42 | 54.06057 | 16.90115 | 28312 ft | 466 kts | 245° |
| 2026-05-01 14:42 | 54.04582 | 16.85183 | 28652 ft | 469 kts | 245° |
| 2026-05-01 14:42 | 54.03092 | 16.80212 | 29026 ft | 472 kts | 245° |
| 2026-05-01 14:43 | 54.01612 | 16.75286 | 29401 ft | 473 kts | 244° |
| 2026-05-01 14:43 | 54.00100 | 16.70265 | 29757 ft | 476 kts | 244° |
| 2026-05-01 14:43 | 53.98589 | 16.65259 | 30143 ft | 477 kts | 244° |
| 2026-05-01 14:43 | 53.97071 | 16.60239 | 30599 ft | 476 kts | 244° |
| 2026-05-01 14:44 | 53.95559 | 16.55250 | 31060 ft | 473 kts | 244° |
| 2026-05-01 14:44 | 53.92556 | 16.45377 | 31961 ft | 468 kts | 244° |
| 2026-05-01 14:44 | 53.91055 | 16.40457 | 32532 ft | 463 kts | 244° |
| 2026-05-01 14:45 | 53.89598 | 16.35688 | 32938 ft | 462 kts | 244° |
| 2026-05-01 14:45 | 53.86619 | 16.25963 | 33505 ft | 466 kts | 244° |
| 2026-05-01 14:45 | 53.85140 | 16.21147 | 33887 ft | 464 kts | 244° |
| 2026-05-01 14:46 | 53.83648 | 16.16305 | 34315 ft | 462 kts | 244° |
| 2026-05-01 14:46 | 53.79133 | 16.01704 | 34342 ft | 464 kts | 244° |
| 2026-05-01 14:47 | 53.76165 | 15.92158 | 34350 ft | 459 kts | 244° |
| 2026-05-01 14:48 | 53.71685 | 15.77810 | 34346 ft | 460 kts | 243° |
| 2026-05-01 14:48 | 53.67174 | 15.63455 | 34348 ft | 461 kts | 243° |
| 2026-05-01 14:49 | 53.61151 | 15.44417 | 34346 ft | 461 kts | 243° |
| 2026-05-01 14:50 | 53.55098 | 15.25436 | 34349 ft | 460 kts | 243° |
| 2026-05-01 14:51 | 53.50547 | 15.11260 | 34346 ft | 460 kts | 243° |
| 2026-05-01 14:52 | 53.45984 | 14.97130 | 34349 ft | 460 kts | 243° |
| 2026-05-01 14:53 | 53.41400 | 14.83018 | 34347 ft | 460 kts | 243° |
| 2026-05-01 14:53 | 53.38310 | 14.73548 | 34356 ft | 460 kts | 243° |
| 2026-05-01 14:54 | 53.35249 | 14.64204 | 34355 ft | 460 kts | 243° |
| 2026-05-01 14:54 | 53.32149 | 14.54777 | 34351 ft | 461 kts | 242° |
| 2026-05-01 14:55 | 53.29067 | 14.45435 | 34353 ft | 460 kts | 242° |
| 2026-05-01 14:55 | 53.26062 | 14.35978 | 34347 ft | 458 kts | 245° |
| 2026-05-01 14:56 | 53.23336 | 14.26412 | 34349 ft | 457 kts | 246° |
| 2026-05-01 14:56 | 53.20620 | 14.16814 | 34352 ft | 456 kts | 246° |
| 2026-05-01 14:57 | 53.17890 | 14.07332 | 34351 ft | 455 kts | 245° |
| 2026-05-01 14:57 | 53.13735 | 13.93069 | 34354 ft | 454 kts | 245° |
| 2026-05-01 14:58 | 53.10975 | 13.83644 | 34356 ft | 454 kts | 245° |
| 2026-05-01 14:58 | 53.08218 | 13.74257 | 34353 ft | 453 kts | 245° |
| 2026-05-01 14:59 | 53.05434 | 13.64810 | 34356 ft | 452 kts | 245° |
| 2026-05-01 14:59 | 53.02677 | 13.55455 | 34358 ft | 452 kts | 245° |
| 2026-05-01 15:00 | 52.98573 | 13.41355 | 34363 ft | 452 kts | 245° |
| 2026-05-01 15:01 | 52.95859 | 13.31911 | 34349 ft | 452 kts | 250° |
| 2026-05-01 15:01 | 52.94516 | 13.21834 | 34358 ft | 450 kts | 267° |
| 2026-05-01 15:02 | 52.94757 | 13.11463 | 34354 ft | 450 kts | 275° |
| 2026-05-01 15:02 | 52.95140 | 13.02803 | 34078 ft | 455 kts | 275° |
| 2026-05-01 15:02 | 52.95422 | 12.95946 | 33475 ft | 447 kts | 275° |
| 2026-05-01 15:03 | 52.95556 | 12.92463 | 32992 ft | 447 kts | 275° |
| 2026-05-01 15:03 | 52.95803 | 12.85649 | 32167 ft | 446 kts | 274° |
| 2026-05-01 15:03 | 52.95982 | 12.80524 | 31676 ft | 442 kts | 274° |
| 2026-05-01 15:03 | 52.96097 | 12.77151 | 31375 ft | 439 kts | 274° |
| 2026-05-01 15:04 | 52.96267 | 12.72083 | 30906 ft | 436 kts | 274° |
| 2026-05-01 15:04 | 52.96439 | 12.67069 | 30419 ft | 433 kts | 275° |
| 2026-05-01 15:04 | 52.96925 | 12.62212 | 29834 ft | 429 kts | 287° |
| 2026-05-01 15:04 | 52.97971 | 12.57599 | 29307 ft | 424 kts | 297° |
| 2026-05-01 15:05 | 52.99413 | 12.53342 | 28830 ft | 422 kts | 302° |
| 2026-05-01 15:05 | 53.00912 | 12.49221 | 28493 ft | 421 kts | 303° |
| 2026-05-01 15:05 | 53.02444 | 12.45079 | 28295 ft | 419 kts | 303° |
| 2026-05-01 15:05 | 53.03966 | 12.40959 | 28150 ft | 416 kts | 303° |
| 2026-05-01 15:06 | 53.05474 | 12.36838 | 27978 ft | 414 kts | 302° |
| 2026-05-01 15:06 | 53.06947 | 12.32780 | 27770 ft | 414 kts | 302° |
| 2026-05-01 15:06 | 53.08430 | 12.28664 | 27546 ft | 413 kts | 302° |
| 2026-05-01 15:06 | 53.09904 | 12.24552 | 27357 ft | 412 kts | 302° |
| 2026-05-01 15:07 | 53.11372 | 12.20443 | 27182 ft | 411 kts | 302° |
| 2026-05-01 15:07 | 53.12831 | 12.16349 | 27022 ft | 410 kts | 301° |
| 2026-05-01 15:07 | 53.14263 | 12.12324 | 26786 ft | 408 kts | 301° |
| 2026-05-01 15:07 | 53.15706 | 12.08263 | 26490 ft | 406 kts | 301° |
| 2026-05-01 15:08 | 53.17140 | 12.04220 | 26095 ft | 403 kts | 301° |
| 2026-05-01 15:08 | 53.18562 | 12.00207 | 25727 ft | 398 kts | 301° |
| 2026-05-01 15:08 | 53.19965 | 11.96235 | 25362 ft | 395 kts | 301° |
| 2026-05-01 15:08 | 53.21358 | 11.92289 | 24978 ft | 393 kts | 301° |
| 2026-05-01 15:09 | 53.22728 | 11.88400 | 24602 ft | 391 kts | 301° |
| 2026-05-01 15:09 | 53.24110 | 11.84472 | 24201 ft | 391 kts | 301° |
| 2026-05-01 15:09 | 53.25486 | 11.80555 | 23778 ft | 390 kts | 300° |
| 2026-05-01 15:09 | 53.26841 | 11.76693 | 23321 ft | 388 kts | 300° |
| 2026-05-01 15:10 | 53.28207 | 11.72789 | 22855 ft | 387 kts | 300° |
| 2026-05-01 15:10 | 53.30900 | 11.65080 | 21972 ft | 384 kts | 300° |
| 2026-05-01 15:10 | 53.32239 | 11.61235 | 21527 ft | 382 kts | 300° |
| 2026-05-01 15:11 | 53.33574 | 11.57400 | 21092 ft | 380 kts | 300° |
| 2026-05-01 15:11 | 53.36225 | 11.49763 | 20244 ft | 375 kts | 301° |
| 2026-05-01 15:11 | 53.37515 | 11.46038 | 19804 ft | 373 kts | 301° |
| 2026-05-01 15:12 | 53.38817 | 11.42274 | 19310 ft | 372 kts | 301° |
| 2026-05-01 15:12 | 53.41406 | 11.34770 | 18329 ft | 370 kts | 300° |
| 2026-05-01 15:12 | 53.42694 | 11.31030 | 17803 ft | 369 kts | 300° |
| 2026-05-01 15:13 | 53.46507 | 11.19922 | 16270 ft | 366 kts | 299° |
| 2026-05-01 15:14 | 53.49042 | 11.12510 | 15287 ft | 364 kts | 298° |
| 2026-05-01 15:14 | 53.50284 | 11.08868 | 14811 ft | 363 kts | 298° |
| 2026-05-01 15:14 | 53.52785 | 11.01523 | 13924 ft | 358 kts | 298° |
| 2026-05-01 15:15 | 53.55249 | 10.94262 | 12892 ft | 356 kts | 298° |
| 2026-05-01 15:15 | 53.57683 | 10.87069 | 11899 ft | 354 kts | 297° |
| 2026-05-01 15:16 | 53.60108 | 10.79879 | 10928 ft | 352 kts | 297° |
| 2026-05-01 15:16 | 53.62498 | 10.72783 | 10375 ft | 337 kts | 297° |
| 2026-05-01 15:17 | 53.64864 | 10.66412 | 10328 ft | 311 kts | 311° |
| 2026-05-01 15:18 | 53.69470 | 10.59099 | 10351 ft | 305 kts | 315° |
| 2026-05-01 15:18 | 53.71018 | 10.56653 | 10310 ft | 309 kts | 314° |
| 2026-05-01 15:19 | 53.73968 | 10.47322 | 10096 ft | 301 kts | 290° |
| 2026-05-01 15:19 | 53.75667 | 10.40830 | 9927 ft | 301 kts | 291° |
| 2026-05-01 15:19 | 53.76537 | 10.37585 | 9704 ft | 306 kts | 291° |
| 2026-05-01 15:20 | 53.78317 | 10.31024 | 8941 ft | 310 kts | 292° |
| 2026-05-01 15:20 | 53.79225 | 10.27703 | 8506 ft | 311 kts | 292° |
| 2026-05-01 15:20 | 53.80137 | 10.24368 | 8081 ft | 311 kts | 292° |
| 2026-05-01 15:21 | 53.81037 | 10.21077 | 7668 ft | 311 kts | 292° |
| 2026-05-01 15:21 | 53.81944 | 10.17763 | 7267 ft | 308 kts | 292° |
| 2026-05-01 15:21 | 53.82836 | 10.14503 | 6852 ft | 301 kts | 292° |
| 2026-05-01 15:21 | 53.83707 | 10.11313 | 6448 ft | 294 kts | 292° |
| 2026-05-01 15:22 | 53.85383 | 10.05157 | 6008 ft | 284 kts | 292° |
| 2026-05-01 15:22 | 53.86204 | 10.02139 | 5777 ft | 279 kts | 292° |
| 2026-05-01 15:22 | 53.86996 | 9.99224 | 5531 ft | 269 kts | 291° |
| 2026-05-01 15:23 | 53.87760 | 9.96407 | 5368 ft | 255 kts | 291° |
| 2026-05-01 15:23 | 53.88563 | 9.93792 | 5234 ft | 245 kts | 306° |
| 2026-05-01 15:23 | 53.89860 | 9.92053 | 5163 ft | 233 kts | 328° |
| 2026-05-01 15:23 | 53.91266 | 9.90797 | 5048 ft | 230 kts | 331° |
| 2026-05-01 15:24 | 53.92786 | 9.89986 | 4901 ft | 230 kts | 355° |
| 2026-05-01 15:24 | 53.94350 | 9.89489 | 4781 ft | 228 kts | 333° |
| 2026-05-01 15:24 | 53.95528 | 9.87783 | 4551 ft | 220 kts | 298° |
| 2026-05-01 15:24 | 53.95929 | 9.85436 | 4211 ft | 206 kts | 263° |
| 2026-05-01 15:25 | 53.95461 | 9.83258 | 3871 ft | 193 kts | 225° |
| 2026-05-01 15:25 | 53.94359 | 9.82136 | 3518 ft | 185 kts | 189° |
| 2026-05-01 15:25 | 53.93097 | 9.81848 | 3251 ft | 182 kts | 184° |
| 2026-05-01 15:25 | 53.91863 | 9.81633 | 3037 ft | 178 kts | 184° |
| 2026-05-01 15:26 | 53.90673 | 9.81428 | 2970 ft | 168 kts | 184° |
| 2026-05-01 15:26 | 53.89513 | 9.81221 | 2966 ft | 168 kts | 184° |
| 2026-05-01 15:26 | 53.88349 | 9.81011 | 2972 ft | 168 kts | 184° |
| 2026-05-01 15:26 | 53.87196 | 9.80808 | 2975 ft | 168 kts | 184° |
| 2026-05-01 15:27 | 53.86024 | 9.80603 | 2978 ft | 169 kts | 184° |
| 2026-05-01 15:27 | 53.84863 | 9.80663 | 2963 ft | 165 kts | 158° |
| 2026-05-01 15:27 | 53.83879 | 9.81598 | 2985 ft | 166 kts | 153° |
| 2026-05-01 15:28 | 53.81813 | 9.83356 | 2976 ft | 168 kts | 153° |
| 2026-05-01 15:28 | 53.80775 | 9.84243 | 2990 ft | 166 kts | 152° |
| 2026-05-01 15:28 | 53.79750 | 9.85126 | 2991 ft | 167 kts | 153° |
| 2026-05-01 15:29 | 53.77506 | 9.87067 | 2706 ft | 185 kts | 152° |
| 2026-05-01 15:29 | 53.76350 | 9.88042 | 2434 ft | 190 kts | 155° |
| 2026-05-01 15:29 | 53.74016 | 9.90086 | 1968 ft | 184 kts | 153° |
| 2026-05-01 15:30 | 53.71789 | 9.92019 | 1452 ft | 177 kts | 153° |
| 2026-05-01 15:31 | 53.67954 | 9.95335 | 628 ft | 127 kts | 152° |
| 2026-05-01 15:31 | 53.66345 | 9.96720 | 334 ft | 127 kts | 151° |
| 2026-05-01 15:32 | 53.64791 | 9.98086 | 51 ft | 115 kts | 156° |
| 2026-05-01 15:32 | 53.63734 | 9.98996 | 48 ft | 67 kts | 153° |
| 2026-05-01 15:33 | 53.63293 | 9.99523 | 49 ft | 5 kts | 100° |
| 2026-05-01 15:34 | 53.63281 | 9.99627 | 48 ft | 0 kts | 101° |